Terminal Aerodrome Forecast
Issued by NWS

Home | Current Version | Previous Version | Text Only | Print | Product List | Glossary On
Versions: 1 2 3 4 5 6 7 8 9 10 11 12 13 14 15 16 17 18 19 20 21
000
FTUS41 KCAR 251120
TAFFVE
TAF
KFVE 251120Z 2512/2612 14011KT 3/4SM -RA BR OVC003 WS020/21040KT
     FM251800 21015G25KT P6SM BKN025
     FM252100 24022G36KT P6SM BKN025=

USA.gov is the U.S. government's official web portal to all federal, state and local government web resources and services.